sensor_id;sensor_type;location;lat;lon;timestamp;pressure;altitude;pressure_sealevel;temperature
81399;BMP280;70853;50.074;10.224;2024-01-10T00:00:17;99551.31;;;-4.88
81399;BMP280;70853;50.074;10.224;2024-01-10T00:02:43;99542.47;;;-4.94
81399;BMP280;70853;50.074;10.224;2024-01-10T00:05:08;99539.94;;;-5.01
81399;BMP280;70853;50.074;10.224;2024-01-10T00:07:34;99541.00;;;-4.95
81399;BMP280;70853;50.074;10.224;2024-01-10T00:10:02;99538.34;;;-4.92
81399;BMP280;70853;50.074;10.224;2024-01-10T00:12:28;99533.25;;;-5.02
81399;BMP280;70853;50.074;10.224;2024-01-10T00:14:58;99533.19;;;-4.95
81399;BMP280;70853;50.074;10.224;2024-01-10T00:17:24;99528.69;;;-4.91
81399;BMP280;70853;50.074;10.224;2024-01-10T00:19:49;99524.63;;;-4.96
81399;BMP280;70853;50.074;10.224;2024-01-10T00:22:15;99533.13;;;-4.88
81399;BMP280;70853;50.074;10.224;2024-01-10T00:24:40;99508.41;;;-5.07
81399;BMP280;70853;50.074;10.224;2024-01-10T00:27:06;99517.22;;;-4.97
81399;BMP280;70853;50.074;10.224;2024-01-10T00:29:31;99522.78;;;-4.95
81399;BMP280;70853;50.074;10.224;2024-01-10T00:31:57;99520.53;;;-4.93
81399;BMP280;70853;50.074;10.224;2024-01-10T00:34:25;99518.63;;;-4.89
81399;BMP280;70853;50.074;10.224;2024-01-10T00:36:50;99508.75;;;-5.05
81399;BMP280;70853;50.074;10.224;2024-01-10T00:39:16;99503.22;;;-5.14
81399;BMP280;70853;50.074;10.224;2024-01-10T00:41:41;99518.69;;;-4.96
81399;BMP280;70853;50.074;10.224;2024-01-10T00:44:07;99505.41;;;-5.05
81399;BMP280;70853;50.074;10.224;2024-01-10T00:46:33;99509.03;;;-4.96
81399;BMP280;70853;50.074;10.224;2024-01-10T00:48:58;99504.91;;;-4.93
81399;BMP280;70853;50.074;10.224;2024-01-10T00:51:24;99507.13;;;-4.92
81399;BMP280;70853;50.074;10.224;2024-01-10T00:53:49;99510.03;;;-4.86
81399;BMP280;70853;50.074;10.224;2024-01-10T00:56:15;99487.44;;;-4.93
81399;BMP280;70853;50.074;10.224;2024-01-10T00:58:40;99502.88;;;-4.75
81399;BMP280;70853;50.074;10.224;2024-01-10T01:01:06;99492.56;;;-4.85
81399;BMP280;70853;50.074;10.224;2024-01-10T01:03:32;99506.59;;;-4.76
81399;BMP280;70853;50.074;10.224;2024-01-10T01:05:58;99502.59;;;-4.84
81399;BMP280;70853;50.074;10.224;2024-01-10T01:08:23;99500.03;;;-4.87
81399;BMP280;70853;50.074;10.224;2024-01-10T01:10:49;99498.47;;;-4.81
81399;BMP280;70853;50.074;10.224;2024-01-10T01:13:14;99497.66;;;-4.71
81399;BMP280;70853;50.074;10.224;2024-01-10T01:15:40;99496.22;;;-4.79
81399;BMP280;70853;50.074;10.224;2024-01-10T01:18:06;99498.09;;;-4.80
81399;BMP280;70853;50.074;10.224;2024-01-10T01:20:32;99503.63;;;-4.74
81399;BMP280;70853;50.074;10.224;2024-01-10T01:22:58;99507.69;;;-4.70
81399;BMP280;70853;50.074;10.224;2024-01-10T01:25:23;99502.84;;;-4.71
81399;BMP280;70853;50.074;10.224;2024-01-10T01:27:49;99505.31;;;-4.61
81399;BMP280;70853;50.074;10.224;2024-01-10T01:30:14;99492.44;;;-4.71
81399;BMP280;70853;50.074;10.224;2024-01-10T01:32:40;99510.97;;;-4.66
81399;BMP280;70853;50.074;10.224;2024-01-10T01:35:06;99508.31;;;-4.62
81399;BMP280;70853;50.074;10.224;2024-01-10T01:37:31;99503.44;;;-4.60
81399;BMP280;70853;50.074;10.224;2024-01-10T01:39:57;99504.91;;;-4.55
81399;BMP280;70853;50.074;10.224;2024-01-10T01:42:22;99502.91;;;-4.44
81399;BMP280;70853;50.074;10.224;2024-01-10T01:44:48;99496.63;;;-4.47
81399;BMP280;70853;50.074;10.224;2024-01-10T01:47:14;99505.19;;;-4.46
81399;BMP280;70853;50.074;10.224;2024-01-10T01:49:41;99504.13;;;-4.52
81399;BMP280;70853;50.074;10.224;2024-01-10T01:52:08;99508.25;;;-4.55
81399;BMP280;70853;50.074;10.224;2024-01-10T01:54:34;99489.34;;;-4.63
81399;BMP280;70853;50.074;10.224;2024-01-10T01:57:00;99514.63;;;-4.63
81399;BMP280;70853;50.074;10.224;2024-01-10T01:59:26;99503.88;;;-4.65
81399;BMP280;70853;50.074;10.224;2024-01-10T02:01:54;99498.38;;;-4.71
81399;BMP280;70853;50.074;10.224;2024-01-10T02:04:20;99501.72;;;-4.70
81399;BMP280;70853;50.074;10.224;2024-01-10T02:06:46;99502.75;;;-4.64
81399;BMP280;70853;50.074;10.224;2024-01-10T02:09:12;99494.75;;;-4.80
81399;BMP280;70853;50.074;10.224;2024-01-10T02:11:37;99503.38;;;-4.87
81399;BMP280;70853;50.074;10.224;2024-01-10T02:14:03;99499.66;;;-4.86
81399;BMP280;70853;50.074;10.224;2024-01-10T02:16:29;99493.63;;;-4.79
81399;BMP280;70853;50.074;10.224;2024-01-10T02:18:54;99488.09;;;-4.85
81399;BMP280;70853;50.074;10.224;2024-01-10T02:21:22;99492.63;;;-4.89
81399;BMP280;70853;50.074;10.224;2024-01-10T02:23:48;99488.41;;;-4.79
81399;BMP280;70853;50.074;10.224;2024-01-10T02:26:15;99478.47;;;-4.88
81399;BMP280;70853;50.074;10.224;2024-01-10T02:28:40;99479.25;;;-4.91
81399;BMP280;70853;50.074;10.224;2024-01-10T02:31:06;99468.97;;;-5.02
81399;BMP280;70853;50.074;10.224;2024-01-10T02:33:32;99473.06;;;-5.04
81399;BMP280;70853;50.074;10.224;2024-01-10T02:35:58;99475.94;;;-4.95
81399;BMP280;70853;50.074;10.224;2024-01-10T02:38:23;99478.78;;;-4.82
81399;BMP280;70853;50.074;10.224;2024-01-10T02:40:49;99477.31;;;-4.83
81399;BMP280;70853;50.074;10.224;2024-01-10T02:43:15;99476.50;;;-4.77
81399;BMP280;70853;50.074;10.224;2024-01-10T02:45:41;99468.84;;;-4.91
81399;BMP280;70853;50.074;10.224;2024-01-10T02:48:07;99479.56;;;-4.85
81399;BMP280;70853;50.074;10.224;2024-01-10T02:50:33;99482.25;;;-4.93
81399;BMP280;70853;50.074;10.224;2024-01-10T02:52:58;99480.69;;;-4.86
81399;BMP280;70853;50.074;10.224;2024-01-10T02:55:24;99482.97;;;-4.92
81399;BMP280;70853;50.074;10.224;2024-01-10T02:57:49;99476.66;;;-4.91
81399;BMP280;70853;50.074;10.224;2024-01-10T03:00:15;99449.69;;;-5.08
81399;BMP280;70853;50.074;10.224;2024-01-10T03:02:40;99471.09;;;-4.93
81399;BMP280;70853;50.074;10.224;2024-01-10T03:05:06;99474.50;;;-5.00
81399;BMP280;70853;50.074;10.224;2024-01-10T03:07:32;99472.50;;;-4.85
81399;BMP280;70853;50.074;10.224;2024-01-10T03:09:58;99469.97;;;-4.92
81399;BMP280;70853;50.074;10.224;2024-01-10T03:12:23;99469.22;;;-4.93
81399;BMP280;70853;50.074;10.224;2024-01-10T03:14:49;99461.44;;;-4.93
81399;BMP280;70853;50.074;10.224;2024-01-10T03:17:15;99468.38;;;-4.82
81399;BMP280;70853;50.074;10.224;2024-01-10T03:19:40;99465.47;;;-4.88
81399;BMP280;70853;50.074;10.224;2024-01-10T03:22:09;99459.84;;;-4.83
81399;BMP280;70853;50.074;10.224;2024-01-10T03:24:36;99457.47;;;-4.70
81399;BMP280;70853;50.074;10.224;2024-01-10T03:27:03;99450.81;;;-4.71
81399;BMP280;70853;50.074;10.224;2024-01-10T03:29:29;99462.16;;;-4.58
81399;BMP280;70853;50.074;10.224;2024-01-10T03:31:54;99470.50;;;-4.70
81399;BMP280;70853;50.074;10.224;2024-01-10T03:34:20;99467.84;;;-4.67
81399;BMP280;70853;50.074;10.224;2024-01-10T03:36:45;99455.16;;;-4.65
81399;BMP280;70853;50.074;10.224;2024-01-10T03:39:11;99459.31;;;-4.67
81399;BMP280;70853;50.074;10.224;2024-01-10T03:41:37;99457.53;;;-4.74
81399;BMP280;70853;50.074;10.224;2024-01-10T03:44:04;99462.34;;;-4.72
81399;BMP280;70853;50.074;10.224;2024-01-10T03:46:29;99450.81;;;-4.71
81399;BMP280;70853;50.074;10.224;2024-01-10T03:48:54;99435.28;;;-4.82
81399;BMP280;70853;50.074;10.224;2024-01-10T03:51:20;99459.41;;;-4.78
81399;BMP280;70853;50.074;10.224;2024-01-10T03:53:46;99445.13;;;-4.97
81399;BMP280;70853;50.074;10.224;2024-01-10T03:56:14;99441.75;;;-4.94
81399;BMP280;70853;50.074;10.224;2024-01-10T03:58:40;99444.81;;;-4.68
81399;BMP280;70853;50.074;10.224;2024-01-10T04:01:06;99443.19;;;-4.89
81399;BMP280;70853;50.074;10.224;2024-01-10T04:03:33;99453.53;;;-4.85
81399;BMP280;70853;50.074;10.224;2024-01-10T04:05:59;99440.25;;;-4.95
81399;BMP280;70853;50.074;10.224;2024-01-10T04:08:27;99438.75;;;-4.92
81399;BMP280;70853;50.074;10.224;2024-01-10T04:10:52;99442.69;;;-4.80
81399;BMP280;70853;50.074;10.224;2024-01-10T04:13:18;99428.31;;;-4.88
81399;BMP280;70853;50.074;10.224;2024-01-10T04:15:44;99433.47;;;-4.85
81399;BMP280;70853;50.074;10.224;2024-01-10T04:18:09;99430.78;;;-4.78
81399;BMP280;70853;50.074;10.224;2024-01-10T04:20:34;99438.19;;;-4.76
81399;BMP280;70853;50.074;10.224;2024-01-10T04:23:00;99438.59;;;-4.78
81399;BMP280;70853;50.074;10.224;2024-01-10T04:25:26;99430.09;;;-4.82
81399;BMP280;70853;50.074;10.224;2024-01-10T04:27:51;99442.78;;;-4.87
81399;BMP280;70853;50.074;10.224;2024-01-10T04:30:17;99436.41;;;-4.83
81399;BMP280;70853;50.074;10.224;2024-01-10T04:32:42;99434.63;;;-4.89
81399;BMP280;70853;50.074;10.224;2024-01-10T04:35:10;99435.41;;;-4.93
81399;BMP280;70853;50.074;10.224;2024-01-10T04:37:36;99441.38;;;-4.96
81399;BMP280;70853;50.074;10.224;2024-01-10T04:40:02;99436.66;;;-5.04
81399;BMP280;70853;50.074;10.224;2024-01-10T04:42:30;99435.91;;;-5.05
81399;BMP280;70853;50.074;10.224;2024-01-10T04:44:55;99434.78;;;-5.04
81399;BMP280;70853;50.074;10.224;2024-01-10T04:47:21;99451.44;;;-4.98
81399;BMP280;70853;50.074;10.224;2024-01-10T04:49:47;99435.50;;;-5.00
81399;BMP280;70853;50.074;10.224;2024-01-10T04:52:12;99457.78;;;-4.99
81399;BMP280;70853;50.074;10.224;2024-01-10T04:54:38;99434.88;;;-5.14
81399;BMP280;70853;50.074;10.224;2024-01-10T04:57:03;99447.84;;;-5.07
81399;BMP280;70853;50.074;10.224;2024-01-10T04:59:29;99445.81;;;-4.93
81399;BMP280;70853;50.074;10.224;2024-01-10T05:01:55;99440.22;;;-4.91
81399;BMP280;70853;50.074;10.224;2024-01-10T05:04:20;99428.50;;;-5.10
81399;BMP280;70853;50.074;10.224;2024-01-10T05:06:46;99421.47;;;-5.09
81399;BMP280;70853;50.074;10.224;2024-01-10T05:09:12;99436.66;;;-5.04
81399;BMP280;70853;50.074;10.224;2024-01-10T05:11:38;99425.44;;;-4.98
81399;BMP280;70853;50.074;10.224;2024-01-10T05:14:03;99429.44;;;-4.89
81399;BMP280;70853;50.074;10.224;2024-01-10T05:16:29;99431.63;;;-4.88
81399;BMP280;70853;50.074;10.224;2024-01-10T05:18:54;99429.34;;;-4.82
81399;BMP280;70853;50.074;10.224;2024-01-10T05:21:21;99427.56;;;-4.89
81399;BMP280;70853;50.074;10.224;2024-01-10T05:23:46;99433.19;;;-4.94
81399;BMP280;70853;50.074;10.224;2024-01-10T05:26:12;99428.94;;;-4.81
81399;BMP280;70853;50.074;10.224;2024-01-10T05:28:37;99433.00;;;-4.76
81399;BMP280;70853;50.074;10.224;2024-01-10T05:31:03;99422.56;;;-4.76
81399;BMP280;70853;50.074;10.224;2024-01-10T05:33:29;99429.97;;;-4.71
81399;BMP280;70853;50.074;10.224;2024-01-10T05:35:54;99427.16;;;-4.53
81399;BMP280;70853;50.074;10.224;2024-01-10T05:38:20;99416.63;;;-4.77
81399;BMP280;70853;50.074;10.224;2024-01-10T05:40:45;99425.75;;;-4.62
81399;BMP280;70853;50.074;10.224;2024-01-10T05:43:11;99416.13;;;-4.65
81399;BMP280;70853;50.074;10.224;2024-01-10T05:45:36;99431.63;;;-4.57
81399;BMP280;70853;50.074;10.224;2024-01-10T05:48:02;99433.13;;;-4.56
81399;BMP280;70853;50.074;10.224;2024-01-10T05:50:28;99423.50;;;-4.60
81399;BMP280;70853;50.074;10.224;2024-01-10T05:52:53;99439.53;;;-4.65
81399;BMP280;70853;50.074;10.224;2024-01-10T05:55:19;99432.97;;;-4.73
81399;BMP280;70853;50.074;10.224;2024-01-10T05:57:45;99431.91;;;-4.79
81399;BMP280;70853;50.074;10.224;2024-01-10T06:00:12;99437.41;;;-4.70
81399;BMP280;70853;50.074;10.224;2024-01-10T06:02:42;99439.66;;;-4.72
81399;BMP280;70853;50.074;10.224;2024-01-10T06:05:09;99418.63;;;-4.88
81399;BMP280;70853;50.074;10.224;2024-01-10T06:07:38;99433.38;;;-4.78
81399;BMP280;70853;50.074;10.224;2024-01-10T06:10:05;99431.22;;;-4.83
81399;BMP280;70853;50.074;10.224;2024-01-10T06:12:30;99436.94;;;-4.65
81399;BMP280;70853;50.074;10.224;2024-01-10T06:14:56;99441.47;;;-4.69
81399;BMP280;70853;50.074;10.224;2024-01-10T06:17:22;99438.28;;;-4.83
81399;BMP280;70853;50.074;10.224;2024-01-10T06:19:49;99438.91;;;-4.72
81399;BMP280;70853;50.074;10.224;2024-01-10T06:22:15;99447.41;;;-4.68
81399;BMP280;70853;50.074;10.224;2024-01-10T06:24:42;99440.69;;;-4.66
81399;BMP280;70853;50.074;10.224;2024-01-10T06:27:08;99438.19;;;-4.76
81399;BMP280;70853;50.074;10.224;2024-01-10T06:29:35;99441.16;;;-4.74
81399;BMP280;70853;50.074;10.224;2024-01-10T06:32:01;99453.16;;;-4.84
81399;BMP280;70853;50.074;10.224;2024-01-10T06:34:27;99449.47;;;-4.86
81399;BMP280;70853;50.074;10.224;2024-01-10T06:36:52;99455.47;;;-4.93
81399;BMP280;70853;50.074;10.224;2024-01-10T06:39:18;99453.75;;;-5.03
81399;BMP280;70853;50.074;10.224;2024-01-10T06:41:48;99453.75;;;-5.03
81399;BMP280;70853;50.074;10.224;2024-01-10T06:44:14;99435.22;;;-5.09
81399;BMP280;70853;50.074;10.224;2024-01-10T06:46:39;99442.16;;;-4.99
81399;BMP280;70853;50.074;10.224;2024-01-10T06:49:05;99415.69;;;-5.28
81399;BMP280;70853;50.074;10.224;2024-01-10T06:51:33;99449.75;;;-5.15
81399;BMP280;70853;50.074;10.224;2024-01-10T06:53:59;99443.38;;;-5.10
81399;BMP280;70853;50.074;10.224;2024-01-10T06:56:31;99450.88;;;-5.16
81399;BMP280;70853;50.074;10.224;2024-01-10T06:58:58;99446.44;;;-5.19
81399;BMP280;70853;50.074;10.224;2024-01-10T07:01:24;99447.63;;;-5.23
81399;BMP280;70853;50.074;10.224;2024-01-10T07:03:51;99452.09;;;-5.24
81399;BMP280;70853;50.074;10.224;2024-01-10T07:06:16;99448.38;;;-5.23
81399;BMP280;70853;50.074;10.224;2024-01-10T07:08:43;99460.97;;;-5.21
81399;BMP280;70853;50.074;10.224;2024-01-10T07:11:10;99463.22;;;-5.27
81399;BMP280;70853;50.074;10.224;2024-01-10T07:13:40;99455.44;;;-5.27
81399;BMP280;70853;50.074;10.224;2024-01-10T07:16:06;99465.38;;;-5.18
81399;BMP280;70853;50.074;10.224;2024-01-10T07:18:32;99463.88;;;-5.16
81399;BMP280;70853;50.074;10.224;2024-01-10T07:20:58;99460.19;;;-5.18
81399;BMP280;70853;50.074;10.224;2024-01-10T07:23:23;99478.44;;;-5.22
81399;BMP280;70853;50.074;10.224;2024-01-10T07:25:49;99475.88;;;-5.26
81399;BMP280;70853;50.074;10.224;2024-01-10T07:28:18;99477.34;;;-5.25
81399;BMP280;70853;50.074;10.224;2024-01-10T07:30:44;99468.44;;;-5.27
81399;BMP280;70853;50.074;10.224;2024-01-10T07:33:10;99474.75;;;-5.25
81399;BMP280;70853;50.074;10.224;2024-01-10T07:35:36;99475.09;;;-5.22
81399;BMP280;70853;50.074;10.224;2024-01-10T07:38:03;99482.47;;;-5.17
81399;BMP280;70853;50.074;10.224;2024-01-10T07:40:29;99482.53;;;-5.21
81399;BMP280;70853;50.074;10.224;2024-01-10T07:42:56;99480.56;;;-5.13
81399;BMP280;70853;50.074;10.224;2024-01-10T07:45:21;99488.38;;;-5.13
81399;BMP280;70853;50.074;10.224;2024-01-10T07:47:48;99463.22;;;-5.23
81399;BMP280;70853;50.074;10.224;2024-01-10T07:50:14;99487.63;;;-5.14
81399;BMP280;70853;50.074;10.224;2024-01-10T07:52:40;99491.31;;;-5.11
81399;BMP280;70853;50.074;10.224;2024-01-10T07:55:08;99475.72;;;-5.11
81399;BMP280;70853;50.074;10.224;2024-01-10T07:57:35;99488.34;;;-5.10
81399;BMP280;70853;50.074;10.224;2024-01-10T08:00:03;99489.06;;;-5.06
81399;BMP280;70853;50.074;10.224;2024-01-10T08:02:34;99493.06;;;-4.98
81399;BMP280;70853;50.074;10.224;2024-01-10T08:05:00;99493.47;;;-4.99
81399;BMP280;70853;50.074;10.224;2024-01-10T08:07:36;99494.91;;;-4.95
81399;BMP280;70853;50.074;10.224;2024-01-10T08:10:05;99493.47;;;-4.99
81399;BMP280;70853;50.074;10.224;2024-01-10T08:12:31;99501.53;;;-4.90
81399;BMP280;70853;50.074;10.224;2024-01-10T08:14:57;99490.78;;;-4.92
81399;BMP280;70853;50.074;10.224;2024-01-10T08:17:23;99497.31;;;-4.77
81399;BMP280;70853;50.074;10.224;2024-01-10T08:19:49;99502.97;;;-4.85
81399;BMP280;70853;50.074;10.224;2024-01-10T08:22:14;99492.69;;;-4.96
81399;BMP280;70853;50.074;10.224;2024-01-10T08:24:40;99505.63;;;-4.89
81399;BMP280;70853;50.074;10.224;2024-01-10T08:27:05;99498.56;;;-4.88
81399;BMP280;70853;50.074;10.224;2024-01-10T08:29:31;99505.53;;;-4.82
81399;BMP280;70853;50.074;10.224;2024-01-10T08:31:57;99487.34;;;-4.82
81399;BMP280;70853;50.074;10.224;2024-01-10T08:34:23;99490.22;;;-4.73
81399;BMP280;70853;50.074;10.224;2024-01-10T08:36:49;99494.19;;;-4.65
81399;BMP280;70853;50.074;10.224;2024-01-10T08:39:18;99503.25;;;-4.73
81399;BMP280;70853;50.074;10.224;2024-01-10T08:41:44;99501.38;;;-4.72
81399;BMP280;70853;50.074;10.224;2024-01-10T08:44:10;99504.22;;;-4.63
81399;BMP280;70853;50.074;10.224;2024-01-10T08:46:36;99517.84;;;-4.48
81399;BMP280;70853;50.074;10.224;2024-01-10T08:49:01;99515.94;;;-4.44
81399;BMP280;70853;50.074;10.224;2024-01-10T08:51:28;99512.59;;;-4.45
81399;BMP280;70853;50.074;10.224;2024-01-10T08:53:53;99522.66;;;-4.47
81399;BMP280;70853;50.074;10.224;2024-01-10T08:56:19;99527.03;;;-4.40
81399;BMP280;70853;50.074;10.224;2024-01-10T08:58:45;99525.09;;;-4.33
81399;BMP280;70853;50.074;10.224;2024-01-10T09:01:11;99528.69;;;-4.23
81399;BMP280;70853;50.074;10.224;2024-01-10T09:03:36;99531.25;;;-4.19
81399;BMP280;70853;50.074;10.224;2024-01-10T09:06:03;99521.22;;;-4.21
81399;BMP280;70853;50.074;10.224;2024-01-10T09:08:30;99528.19;;;-4.11
81399;BMP280;70853;50.074;10.224;2024-01-10T09:10:55;99535.19;;;-4.08
81399;BMP280;70853;50.074;10.224;2024-01-10T09:13:20;99538.44;;;-4.00
81399;BMP280;70853;50.074;10.224;2024-01-10T09:15:46;99528.34;;;-3.94
81399;BMP280;70853;50.074;10.224;2024-01-10T09:18:12;99536.94;;;-3.98
81399;BMP280;70853;50.074;10.224;2024-01-10T09:20:37;99523.47;;;-3.92
81399;BMP280;70853;50.074;10.224;2024-01-10T09:23:03;99531.47;;;-3.80
81399;BMP280;70853;50.074;10.224;2024-01-10T09:25:29;99531.00;;;-3.71
81399;BMP280;70853;50.074;10.224;2024-01-10T09:27:55;99536.50;;;-3.66
81399;BMP280;70853;50.074;10.224;2024-01-10T09:30:21;99542.63;;;-3.52
81399;BMP280;70853;50.074;10.224;2024-01-10T09:32:46;99541.00;;;-3.43
81399;BMP280;70853;50.074;10.224;2024-01-10T09:35:12;99541.28;;;-3.37
81399;BMP280;70853;50.074;10.224;2024-01-10T09:37:38;99549.31;;;-3.28
81399;BMP280;70853;50.074;10.224;2024-01-10T09:40:05;99545.50;;;-3.20
81399;BMP280;70853;50.074;10.224;2024-01-10T09:42:34;99543.91;;;-3.14
81399;BMP280;70853;50.074;10.224;2024-01-10T09:45:03;99546.03;;;-3.09
81399;BMP280;70853;50.074;10.224;2024-01-10T09:47:31;99546.66;;;-3.01
81399;BMP280;70853;50.074;10.224;2024-01-10T09:49:57;99551.00;;;-2.94
81399;BMP280;70853;50.074;10.224;2024-01-10T09:52:27;99552.25;;;-2.79
81399;BMP280;70853;50.074;10.224;2024-01-10T09:54:54;99539.78;;;-2.72
81399;BMP280;70853;50.074;10.224;2024-01-10T09:57:22;99548.97;;;-2.63
81399;BMP280;70853;50.074;10.224;2024-01-10T09:59:50;99536.13;;;-2.54
81399;BMP280;70853;50.074;10.224;2024-01-10T10:02:18;99543.31;;;-2.42
81399;BMP280;70853;50.074;10.224;2024-01-10T10:05:03;99548.94;;;-2.44
81399;BMP280;70853;50.074;10.224;2024-01-10T10:07:29;99542.75;;;-2.50
81399;BMP280;70853;50.074;10.224;2024-01-10T10:09:55;99545.72;;;-2.31
81399;BMP280;70853;50.074;10.224;2024-01-10T10:12:41;99540.63;;;-2.39
81399;BMP280;70853;50.074;10.224;2024-01-10T10:15:12;99555.84;;;-2.34
81399;BMP280;70853;50.074;10.224;2024-01-10T10:17:39;99538.25;;;-2.29
81399;BMP280;70853;50.074;10.224;2024-01-10T10:20:17;99543.22;;;-2.19
81399;BMP280;70853;50.074;10.224;2024-01-10T10:25:23;99534.53;;;-1.96
81399;BMP280;70853;50.074;10.224;2024-01-10T10:27:50;99530.06;;;-1.79
81399;BMP280;70853;50.074;10.224;2024-01-10T10:30:17;99537.16;;;-1.63
81399;BMP280;70853;50.074;10.224;2024-01-10T10:32:43;99537.66;;;-1.52
81399;BMP280;70853;50.074;10.224;2024-01-10T10:35:08;99532.41;;;-1.52
81399;BMP280;70853;50.074;10.224;2024-01-10T10:37:34;99534.25;;;-1.37
81399;BMP280;70853;50.074;10.224;2024-01-10T10:40:00;99534.84;;;-1.29
81399;BMP280;70853;50.074;10.224;2024-01-10T10:42:27;99530.28;;;-1.41
81399;BMP280;70853;50.074;10.224;2024-01-10T10:44:54;99540.31;;;-1.23
81399;BMP280;70853;50.074;10.224;2024-01-10T10:47:23;99530.09;;;-1.18
81399;BMP280;70853;50.074;10.224;2024-01-10T10:49:53;99543.03;;;-0.98
81399;BMP280;70853;50.074;10.224;2024-01-10T10:52:20;99532.56;;;-0.98
81399;BMP280;70853;50.074;10.224;2024-01-10T10:54:47;99536.25;;;-0.95
81399;BMP280;70853;50.074;10.224;2024-01-10T10:57:13;99534.09;;;-0.84
81399;BMP280;70853;50.074;10.224;2024-01-10T10:59:41;99542.47;;;-0.77
81399;BMP280;70853;50.074;10.224;2024-01-10T11:02:09;99527.47;;;-0.76
81399;BMP280;70853;50.074;10.224;2024-01-10T11:04:36;99517.09;;;-0.80
81399;BMP280;70853;50.074;10.224;2024-01-10T11:07:02;99500.97;;;-0.78
81399;BMP280;70853;50.074;10.224;2024-01-10T11:09:28;99533.41;;;-0.47
81399;BMP280;70853;50.074;10.224;2024-01-10T11:12:21;99528.19;;;-0.34
81399;BMP280;70853;50.074;10.224;2024-01-10T11:18:05;99519.38;;;-0.40
81399;BMP280;70853;50.074;10.224;2024-01-10T11:21:14;99528.44;;;-0.28
81399;BMP280;70853;50.074;10.224;2024-01-10T11:23:45;99519.59;;;-0.22
81399;BMP280;70853;50.074;10.224;2024-01-10T11:26:13;99518.78;;;-0.06
81399;BMP280;70853;50.074;10.224;2024-01-10T11:28:40;99511.09;;;-0.01
81399;BMP280;70853;50.074;10.224;2024-01-10T11:31:06;99514.84;;;0.11
81399;BMP280;70853;50.074;10.224;2024-01-10T11:33:34;99505.63;;;0.19
81399;BMP280;70853;50.074;10.224;2024-01-10T11:41:15;99507.75;;;0.33
81399;BMP280;70853;50.074;10.224;2024-01-10T11:43:45;99500.06;;;0.39
81399;BMP280;70853;50.074;10.224;2024-01-10T11:46:12;99508.56;;;0.43
81399;BMP280;70853;50.074;10.224;2024-01-10T11:48:37;99494.91;;;0.48
81399;BMP280;70853;50.074;10.224;2024-01-10T11:51:04;99504.31;;;0.58
81399;BMP280;70853;50.074;10.224;2024-01-10T11:53:42;99498.81;;;0.65
81399;BMP280;70853;50.074;10.224;2024-01-10T11:56:14;99493.75;;;0.71
81399;BMP280;70853;50.074;10.224;2024-01-10T11:58:53;99491.22;;;0.80
81399;BMP280;70853;50.074;10.224;2024-01-10T12:01:21;99475.94;;;0.66
81399;BMP280;70853;50.074;10.224;2024-01-10T12:03:47;99482.34;;;0.87
81399;BMP280;70853;50.074;10.224;2024-01-10T12:06:16;99500.56;;;1.03
81399;BMP280;70853;50.074;10.224;2024-01-10T12:08:42;99492.00;;;0.90
81399;BMP280;70853;50.074;10.224;2024-01-10T12:11:07;99492.78;;;0.99
81399;BMP280;70853;50.074;10.224;2024-01-10T12:13:34;99492.84;;;1.09
81399;BMP280;70853;50.074;10.224;2024-01-10T12:16:00;99488.91;;;1.13
81399;BMP280;70853;50.074;10.224;2024-01-10T12:18:26;99487.50;;;1.21
81399;BMP280;70853;50.074;10.224;2024-01-10T12:20:51;99485.19;;;1.23
81399;BMP280;70853;50.074;10.224;2024-01-10T12:23:17;99479.50;;;1.25
81399;BMP280;70853;50.074;10.224;2024-01-10T12:25:42;99479.69;;;1.30
81399;BMP280;70853;50.074;10.224;2024-01-10T12:28:08;99456.28;;;1.23
81399;BMP280;70853;50.074;10.224;2024-01-10T12:30:33;99477.19;;;1.36
81399;BMP280;70853;50.074;10.224;2024-01-10T12:33:02;99464.47;;;1.34
81399;BMP280;70853;50.074;10.224;2024-01-10T12:35:28;99477.66;;;1.44
81399;BMP280;70853;50.074;10.224;2024-01-10T12:37:54;99467.88;;;1.44
81399;BMP280;70853;50.074;10.224;2024-01-10T12:40:20;99471.00;;;1.61
81399;BMP280;70853;50.074;10.224;2024-01-10T12:42:47;99465.03;;;1.60
81399;BMP280;70853;50.074;10.224;2024-01-10T12:45:25;99461.97;;;1.71
81399;BMP280;70853;50.074;10.224;2024-01-10T12:47:53;99468.44;;;1.79
81399;BMP280;70853;50.074;10.224;2024-01-10T12:50:19;99474.13;;;1.87
81399;BMP280;70853;50.074;10.224;2024-01-10T12:52:45;99476.03;;;1.95
81399;BMP280;70853;50.074;10.224;2024-01-10T12:55:10;99471.91;;;1.94
81399;BMP280;70853;50.074;10.224;2024-01-10T12:57:36;99470.75;;;1.95
81399;BMP280;70853;50.074;10.224;2024-01-10T13:00:02;99471.50;;;2.05
81399;BMP280;70853;50.074;10.224;2024-01-10T13:02:34;99468.19;;;2.14
81399;BMP280;70853;50.074;10.224;2024-01-10T13:05:05;99458.25;;;2.18
81399;BMP280;70853;50.074;10.224;2024-01-10T13:07:38;99460.41;;;2.19
81399;BMP280;70853;50.074;10.224;2024-01-10T13:10:04;99449.59;;;2.26
81399;BMP280;70853;50.074;10.224;2024-01-10T13:12:29;99445.34;;;2.29
81399;BMP280;70853;50.074;10.224;2024-01-10T13:14:55;99451.34;;;2.38
81399;BMP280;70853;50.074;10.224;2024-01-10T13:17:21;99428.56;;;2.17
81399;BMP280;70853;50.074;10.224;2024-01-10T13:19:47;99444.75;;;2.34
81399;BMP280;70853;50.074;10.224;2024-01-10T13:22:15;99446.81;;;2.39
81399;BMP280;70853;50.074;10.224;2024-01-10T13:24:45;99444.91;;;2.12
81399;BMP280;70853;50.074;10.224;2024-01-10T13:27:10;99451.19;;;2.42
81399;BMP280;70853;50.074;10.224;2024-01-10T13:29:36;99451.59;;;2.50
81399;BMP280;70853;50.074;10.224;2024-01-10T13:32:04;99446.94;;;2.54
81399;BMP280;70853;50.074;10.224;2024-01-10T13:34:30;99446.03;;;2.66
81399;BMP280;70853;50.074;10.224;2024-01-10T13:36:55;99443.25;;;2.69
81399;BMP280;70853;50.074;10.224;2024-01-10T13:39:21;99444.44;;;2.59
81399;BMP280;70853;50.074;10.224;2024-01-10T13:41:46;99448.94;;;2.68
81399;BMP280;70853;50.074;10.224;2024-01-10T13:44:12;99457.25;;;2.75
81399;BMP280;70853;50.074;10.224;2024-01-10T13:46:37;99447.81;;;2.60
81399;BMP280;70853;50.074;10.224;2024-01-10T13:49:03;99460.97;;;2.60
81399;BMP280;70853;50.074;10.224;2024-01-10T13:51:28;99464.16;;;2.73
81399;BMP280;70853;50.074;10.224;2024-01-10T13:53:54;99465.16;;;2.75
81399;BMP280;70853;50.074;10.224;2024-01-10T13:56:19;99464.88;;;2.92
81399;BMP280;70853;50.074;10.224;2024-01-10T13:58:48;99466.91;;;2.78
81399;BMP280;70853;50.074;10.224;2024-01-10T14:01:13;99464.91;;;2.64
81399;BMP280;70853;50.074;10.224;2024-01-10T14:03:39;99471.78;;;2.71
81399;BMP280;70853;50.074;10.224;2024-01-10T14:06:05;99465.91;;;2.76